CWRX

Rowley Island Airport

Canada

CWRX 191500Z AUTO 32011KT ////SM //// ////// 02/01 A2997

Observed Flight Rules
Sep-19 @ 15:00 UTC (26 minutes ago)
Unavailable
Wind
320° at 11 knots
Temperatures Readings
Current 2°C / 36°F
Dewpoint 1°C / 34°F
Humidity 93%
Altimeter 29.97" Hg
Pressure 1015 hPa
Elevation 41
Observed Flight Rules
Sep-19 @ 15:00 UTC
(26 minutes ago)
UNK
Wind
320° at 11 knots
Temperature Dewpoint
2°C / 36°F 1°C / 34°F
Humidity Altimeter Pressure
93% 29.97" Hg 1015 hPa